sensor_id;sensor_type;location;lat;lon;timestamp;temperature;humidity
39219;DHT22;24934;52.752;6.964;2023-07-28T00:01:30;17.40;99.90
39219;DHT22;24934;52.752;6.964;2023-07-28T00:03:56;17.40;99.90
39219;DHT22;24934;52.752;6.964;2023-07-28T00:06:23;17.40;99.90
39219;DHT22;24934;52.752;6.964;2023-07-28T00:08:49;17.40;99.90
39219;DHT22;24934;52.752;6.964;2023-07-28T00:11:17;17.40;99.90
39219;DHT22;24934;52.752;6.964;2023-07-28T00:13:43;17.40;99.90
39219;DHT22;24934;52.752;6.964;2023-07-28T00:16:09;17.40;99.90
39219;DHT22;24934;52.752;6.964;2023-07-28T00:18:35;17.40;99.90
39219;DHT22;24934;52.752;6.964;2023-07-28T00:21:01;17.40;99.90
39219;DHT22;24934;52.752;6.964;2023-07-28T00:23:30;17.40;99.90
39219;DHT22;24934;52.752;6.964;2023-07-28T00:25:56;17.40;99.90
39219;DHT22;24934;52.752;6.964;2023-07-28T00:28:21;17.40;99.90
39219;DHT22;24934;52.752;6.964;2023-07-28T00:30:50;17.40;99.90
39219;DHT22;24934;52.752;6.964;2023-07-28T00:33:16;17.40;99.90
39219;DHT22;24934;52.752;6.964;2023-07-28T00:35:43;17.40;99.90
39219;DHT22;24934;52.752;6.964;2023-07-28T00:38:09;17.40;99.90
39219;DHT22;24934;52.752;6.964;2023-07-28T00:40:35;17.40;99.90
39219;DHT22;24934;52.752;6.964;2023-07-28T00:43:01;17.30;99.90
39219;DHT22;24934;52.752;6.964;2023-07-28T00:45:28;17.40;99.90
39219;DHT22;24934;52.752;6.964;2023-07-28T00:47:55;17.40;99.90
39219;DHT22;24934;52.752;6.964;2023-07-28T00:50:23;17.40;99.90
39219;DHT22;24934;52.752;6.964;2023-07-28T00:52:49;17.40;99.90
39219;DHT22;24934;52.752;6.964;2023-07-28T00:55:15;17.30;99.90
39219;DHT22;24934;52.752;6.964;2023-07-28T00:57:41;17.30;99.90
39219;DHT22;24934;52.752;6.964;2023-07-28T01:00:07;17.40;99.90
39219;DHT22;24934;52.752;6.964;2023-07-28T01:02:33;17.40;99.90
39219;DHT22;24934;52.752;6.964;2023-07-28T01:04:59;17.40;99.90
39219;DHT22;24934;52.752;6.964;2023-07-28T01:07:36;17.40;99.90
39219;DHT22;24934;52.752;6.964;2023-07-28T01:10:18;17.30;99.90
39219;DHT22;24934;52.752;6.964;2023-07-28T01:12:44;17.30;99.90
39219;DHT22;24934;52.752;6.964;2023-07-28T01:15:09;17.30;99.90
39219;DHT22;24934;52.752;6.964;2023-07-28T01:17:35;17.30;99.90
39219;DHT22;24934;52.752;6.964;2023-07-28T01:20:02;17.30;99.90
39219;DHT22;24934;52.752;6.964;2023-07-28T01:23:08;17.30;99.90
39219;DHT22;24934;52.752;6.964;2023-07-28T01:26:03;17.30;99.90
39219;DHT22;24934;52.752;6.964;2023-07-28T01:28:30;17.30;99.90
39219;DHT22;24934;52.752;6.964;2023-07-28T01:30:57;17.40;99.90
39219;DHT22;24934;52.752;6.964;2023-07-28T01:33:23;17.30;99.90
39219;DHT22;24934;52.752;6.964;2023-07-28T01:35:49;17.30;99.90
39219;DHT22;24934;52.752;6.964;2023-07-28T01:38:14;17.30;99.90
39219;DHT22;24934;52.752;6.964;2023-07-28T01:40:41;17.30;99.90
39219;DHT22;24934;52.752;6.964;2023-07-28T01:43:07;17.30;99.90
39219;DHT22;24934;52.752;6.964;2023-07-28T01:45:33;17.30;99.90
39219;DHT22;24934;52.752;6.964;2023-07-28T01:47:58;17.30;99.90
39219;DHT22;24934;52.752;6.964;2023-07-28T01:50:24;17.30;99.90
39219;DHT22;24934;52.752;6.964;2023-07-28T01:52:49;17.30;99.90
39219;DHT22;24934;52.752;6.964;2023-07-28T01:55:15;17.30;99.90
39219;DHT22;24934;52.752;6.964;2023-07-28T01:57:51;17.40;99.90
39219;DHT22;24934;52.752;6.964;2023-07-28T02:00:17;17.30;99.90
39219;DHT22;24934;52.752;6.964;2023-07-28T02:02:46;17.30;99.90
39219;DHT22;24934;52.752;6.964;2023-07-28T02:05:15;17.30;99.90
39219;DHT22;24934;52.752;6.964;2023-07-28T02:07:41;17.30;99.90
39219;DHT22;24934;52.752;6.964;2023-07-28T02:10:07;17.30;99.90
39219;DHT22;24934;52.752;6.964;2023-07-28T02:12:32;17.30;99.90
39219;DHT22;24934;52.752;6.964;2023-07-28T02:14:59;17.40;99.90
39219;DHT22;24934;52.752;6.964;2023-07-28T02:17:25;17.30;99.90
39219;DHT22;24934;52.752;6.964;2023-07-28T02:19:50;17.30;99.90
39219;DHT22;24934;52.752;6.964;2023-07-28T02:22:16;17.40;99.90
39219;DHT22;24934;52.752;6.964;2023-07-28T02:24:41;17.30;99.90
39219;DHT22;24934;52.752;6.964;2023-07-28T02:27:07;17.40;99.90
39219;DHT22;24934;52.752;6.964;2023-07-28T02:29:33;17.40;99.90
39219;DHT22;24934;52.752;6.964;2023-07-28T02:31:58;17.30;99.90
39219;DHT22;24934;52.752;6.964;2023-07-28T02:34:24;17.30;99.90
39219;DHT22;24934;52.752;6.964;2023-07-28T02:36:50;17.40;99.90
39219;DHT22;24934;52.752;6.964;2023-07-28T02:39:15;17.40;99.90
39219;DHT22;24934;52.752;6.964;2023-07-28T02:41:41;17.40;99.90
39219;DHT22;24934;52.752;6.964;2023-07-28T02:44:07;17.30;99.90
39219;DHT22;24934;52.752;6.964;2023-07-28T02:46:33;17.30;99.90
39219;DHT22;24934;52.752;6.964;2023-07-28T02:48:58;17.40;99.90
39219;DHT22;24934;52.752;6.964;2023-07-28T02:51:24;17.40;99.90
39219;DHT22;24934;52.752;6.964;2023-07-28T02:53:49;17.40;99.90
39219;DHT22;24934;52.752;6.964;2023-07-28T02:56:15;17.30;99.90
39219;DHT22;24934;52.752;6.964;2023-07-28T02:58:41;17.40;99.90
39219;DHT22;24934;52.752;6.964;2023-07-28T03:01:06;17.30;99.90
39219;DHT22;24934;52.752;6.964;2023-07-28T03:03:32;17.30;99.90
39219;DHT22;24934;52.752;6.964;2023-07-28T03:06:00;17.30;99.90
39219;DHT22;24934;52.752;6.964;2023-07-28T03:08:26;17.40;99.90
39219;DHT22;24934;52.752;6.964;2023-07-28T03:10:58;17.30;99.90
39219;DHT22;24934;52.752;6.964;2023-07-28T03:13:24;17.30;99.90
39219;DHT22;24934;52.752;6.964;2023-07-28T03:15:50;17.40;99.90
39219;DHT22;24934;52.752;6.964;2023-07-28T03:18:16;17.30;99.90
39219;DHT22;24934;52.752;6.964;2023-07-28T03:20:41;17.40;99.90
39219;DHT22;24934;52.752;6.964;2023-07-28T03:23:07;17.30;99.90
39219;DHT22;24934;52.752;6.964;2023-07-28T03:25:32;17.40;99.90
39219;DHT22;24934;52.752;6.964;2023-07-28T03:27:58;17.30;99.90
39219;DHT22;24934;52.752;6.964;2023-07-28T03:30:24;17.40;99.90
39219;DHT22;24934;52.752;6.964;2023-07-28T03:32:52;17.30;99.90
39219;DHT22;24934;52.752;6.964;2023-07-28T03:35:18;17.30;99.90
39219;DHT22;24934;52.752;6.964;2023-07-28T03:37:44;17.30;99.90
39219;DHT22;24934;52.752;6.964;2023-07-28T03:40:09;17.40;99.90
39219;DHT22;24934;52.752;6.964;2023-07-28T03:42:35;17.40;99.90
39219;DHT22;24934;52.752;6.964;2023-07-28T03:45:01;17.40;99.90
39219;DHT22;24934;52.752;6.964;2023-07-28T03:47:26;17.40;99.90
39219;DHT22;24934;52.752;6.964;2023-07-28T03:49:52;17.40;99.90
39219;DHT22;24934;52.752;6.964;2023-07-28T03:52:17;17.40;99.90
39219;DHT22;24934;52.752;6.964;2023-07-28T03:54:43;17.40;99.90
39219;DHT22;24934;52.752;6.964;2023-07-28T03:57:09;17.40;99.90
39219;DHT22;24934;52.752;6.964;2023-07-28T03:59:35;17.40;99.90
39219;DHT22;24934;52.752;6.964;2023-07-28T04:02:00;17.40;99.90
39219;DHT22;24934;52.752;6.964;2023-07-28T04:04:26;17.40;99.90
39219;DHT22;24934;52.752;6.964;2023-07-28T04:06:52;17.40;99.90
39219;DHT22;24934;52.752;6.964;2023-07-28T04:09:20;17.40;99.90
39219;DHT22;24934;52.752;6.964;2023-07-28T04:11:46;17.40;99.90
39219;DHT22;24934;52.752;6.964;2023-07-28T04:14:15;17.40;99.90
39219;DHT22;24934;52.752;6.964;2023-07-28T04:16:43;17.40;99.90
39219;DHT22;24934;52.752;6.964;2023-07-28T04:19:09;17.40;99.90
39219;DHT22;24934;52.752;6.964;2023-07-28T04:21:34;17.40;99.90
39219;DHT22;24934;52.752;6.964;2023-07-28T04:24:00;17.40;99.90
39219;DHT22;24934;52.752;6.964;2023-07-28T04:26:26;17.40;99.90
39219;DHT22;24934;52.752;6.964;2023-07-28T04:28:51;17.40;99.90
39219;DHT22;24934;52.752;6.964;2023-07-28T04:31:17;17.50;99.90
39219;DHT22;24934;52.752;6.964;2023-07-28T04:33:43;17.40;99.90
39219;DHT22;24934;52.752;6.964;2023-07-28T04:36:09;17.40;99.90
39219;DHT22;24934;52.752;6.964;2023-07-28T04:38:35;17.50;99.90
39219;DHT22;24934;52.752;6.964;2023-07-28T04:41:00;17.50;99.90
39219;DHT22;24934;52.752;6.964;2023-07-28T04:43:26;17.50;99.90
39219;DHT22;24934;52.752;6.964;2023-07-28T04:45:52;17.50;99.90
39219;DHT22;24934;52.752;6.964;2023-07-28T04:48:17;17.50;99.90
39219;DHT22;24934;52.752;6.964;2023-07-28T04:50:44;17.50;99.90
39219;DHT22;24934;52.752;6.964;2023-07-28T04:53:10;17.50;99.90
39219;DHT22;24934;52.752;6.964;2023-07-28T04:55:35;17.50;99.90
39219;DHT22;24934;52.752;6.964;2023-07-28T04:58:01;17.50;99.90
39219;DHT22;24934;52.752;6.964;2023-07-28T05:00:27;17.50;99.90
39219;DHT22;24934;52.752;6.964;2023-07-28T05:02:52;17.50;99.90
39219;DHT22;24934;52.752;6.964;2023-07-28T05:05:18;17.50;99.90
39219;DHT22;24934;52.752;6.964;2023-07-28T05:07:43;17.50;99.90
39219;DHT22;24934;52.752;6.964;2023-07-28T05:10:09;17.50;99.90
39219;DHT22;24934;52.752;6.964;2023-07-28T05:12:35;17.50;99.90
39219;DHT22;24934;52.752;6.964;2023-07-28T05:15:01;17.50;99.90
39219;DHT22;24934;52.752;6.964;2023-07-28T05:17:26;17.50;99.90
39219;DHT22;24934;52.752;6.964;2023-07-28T05:19:52;17.50;99.90
39219;DHT22;24934;52.752;6.964;2023-07-28T05:22:18;17.50;99.90
39219;DHT22;24934;52.752;6.964;2023-07-28T05:24:44;17.50;99.90
39219;DHT22;24934;52.752;6.964;2023-07-28T05:27:11;17.60;99.90
39219;DHT22;24934;52.752;6.964;2023-07-28T05:29:37;17.60;99.90
39219;DHT22;24934;52.752;6.964;2023-07-28T05:32:03;17.60;99.90
39219;DHT22;24934;52.752;6.964;2023-07-28T05:34:31;17.60;99.90
39219;DHT22;24934;52.752;6.964;2023-07-28T05:36:58;17.60;99.90
39219;DHT22;24934;52.752;6.964;2023-07-28T05:39:24;17.60;99.90
39219;DHT22;24934;52.752;6.964;2023-07-28T05:41:49;17.60;99.90
39219;DHT22;24934;52.752;6.964;2023-07-28T05:44:15;17.60;99.90
39219;DHT22;24934;52.752;6.964;2023-07-28T05:46:41;17.60;99.90
39219;DHT22;24934;52.752;6.964;2023-07-28T05:49:06;17.70;99.90
39219;DHT22;24934;52.752;6.964;2023-07-28T05:51:39;17.70;99.90
39219;DHT22;24934;52.752;6.964;2023-07-28T05:54:05;17.70;99.90
39219;DHT22;24934;52.752;6.964;2023-07-28T05:56:30;17.70;99.90
39219;DHT22;24934;52.752;6.964;2023-07-28T05:58:56;17.70;99.90
39219;DHT22;24934;52.752;6.964;2023-07-28T06:01:22;17.70;99.90
39219;DHT22;24934;52.752;6.964;2023-07-28T06:03:48;17.70;99.90
39219;DHT22;24934;52.752;6.964;2023-07-28T06:06:16;17.80;99.90
39219;DHT22;24934;52.752;6.964;2023-07-28T06:08:42;17.80;99.90
39219;DHT22;24934;52.752;6.964;2023-07-28T06:11:23;17.80;99.90
39219;DHT22;24934;52.752;6.964;2023-07-28T06:13:48;17.80;99.90
39219;DHT22;24934;52.752;6.964;2023-07-28T06:16:15;17.80;99.90
39219;DHT22;24934;52.752;6.964;2023-07-28T06:18:40;17.90;99.90
39219;DHT22;24934;52.752;6.964;2023-07-28T06:21:06;17.90;99.90
39219;DHT22;24934;52.752;6.964;2023-07-28T06:23:32;17.90;99.90
39219;DHT22;24934;52.752;6.964;2023-07-28T06:25:58;17.90;99.90
39219;DHT22;24934;52.752;6.964;2023-07-28T06:28:23;18.00;99.90
39219;DHT22;24934;52.752;6.964;2023-07-28T06:30:56;18.00;99.90
39219;DHT22;24934;52.752;6.964;2023-07-28T06:33:21;18.10;99.90
39219;DHT22;24934;52.752;6.964;2023-07-28T06:35:47;18.20;99.90
39219;DHT22;24934;52.752;6.964;2023-07-28T06:38:13;18.20;99.90
39219;DHT22;24934;52.752;6.964;2023-07-28T06:40:39;18.40;99.90
39219;DHT22;24934;52.752;6.964;2023-07-28T06:43:04;18.40;99.90
39219;DHT22;24934;52.752;6.964;2023-07-28T06:45:30;18.50;99.90
39219;DHT22;24934;52.752;6.964;2023-07-28T06:47:55;18.60;99.90
39219;DHT22;24934;52.752;6.964;2023-07-28T06:50:21;18.70;99.90
39219;DHT22;24934;52.752;6.964;2023-07-28T06:52:47;18.70;99.90
39219;DHT22;24934;52.752;6.964;2023-07-28T06:55:16;18.90;99.90
39219;DHT22;24934;52.752;6.964;2023-07-28T06:57:42;19.10;99.90
39219;DHT22;24934;52.752;6.964;2023-07-28T07:00:08;19.20;99.90
39219;DHT22;24934;52.752;6.964;2023-07-28T07:02:35;19.20;99.90
39219;DHT22;24934;52.752;6.964;2023-07-28T07:05:01;19.30;99.90
39219;DHT22;24934;52.752;6.964;2023-07-28T07:07:27;19.40;99.90
39219;DHT22;24934;52.752;6.964;2023-07-28T07:09:52;19.40;99.90
39219;DHT22;24934;52.752;6.964;2023-07-28T07:12:18;19.60;99.90
39219;DHT22;24934;52.752;6.964;2023-07-28T07:14:45;19.60;99.90
39219;DHT22;24934;52.752;6.964;2023-07-28T07:17:10;19.80;99.90
39219;DHT22;24934;52.752;6.964;2023-07-28T07:19:36;19.90;99.90
39219;DHT22;24934;52.752;6.964;2023-07-28T07:22:01;20.00;99.90
39219;DHT22;24934;52.752;6.964;2023-07-28T07:24:28;20.10;99.90
39219;DHT22;24934;52.752;6.964;2023-07-28T07:26:54;20.10;99.90
39219;DHT22;24934;52.752;6.964;2023-07-28T07:29:19;20.00;99.90
39219;DHT22;24934;52.752;6.964;2023-07-28T07:31:45;20.10;99.90
39219;DHT22;24934;52.752;6.964;2023-07-28T07:34:11;20.00;99.90
39219;DHT22;24934;52.752;6.964;2023-07-28T07:36:36;20.00;99.90
39219;DHT22;24934;52.752;6.964;2023-07-28T07:39:02;19.90;99.90
39219;DHT22;24934;52.752;6.964;2023-07-28T07:41:30;19.80;99.90
39219;DHT22;24934;52.752;6.964;2023-07-28T07:43:56;19.70;99.90
39219;DHT22;24934;52.752;6.964;2023-07-28T07:46:22;19.70;99.90
39219;DHT22;24934;52.752;6.964;2023-07-28T07:48:48;19.70;99.90
39219;DHT22;24934;52.752;6.964;2023-07-28T07:51:15;19.70;99.90
39219;DHT22;24934;52.752;6.964;2023-07-28T07:53:40;19.60;99.90
39219;DHT22;24934;52.752;6.964;2023-07-28T07:56:06;19.50;99.90
39219;DHT22;24934;52.752;6.964;2023-07-28T07:58:33;19.40;99.90
39219;DHT22;24934;52.752;6.964;2023-07-28T08:00:59;19.40;99.90
39219;DHT22;24934;52.752;6.964;2023-07-28T08:03:25;19.40;99.90
39219;DHT22;24934;52.752;6.964;2023-07-28T08:05:51;19.40;99.90
39219;DHT22;24934;52.752;6.964;2023-07-28T08:08:17;19.40;99.90
39219;DHT22;24934;52.752;6.964;2023-07-28T08:10:48;19.60;99.90
39219;DHT22;24934;52.752;6.964;2023-07-28T08:13:14;19.70;99.90
39219;DHT22;24934;52.752;6.964;2023-07-28T08:15:43;19.80;99.90
39219;DHT22;24934;52.752;6.964;2023-07-28T08:18:11;19.90;99.90
39219;DHT22;24934;52.752;6.964;2023-07-28T08:20:36;19.90;99.90
39219;DHT22;24934;52.752;6.964;2023-07-28T08:23:02;19.90;99.90
39219;DHT22;24934;52.752;6.964;2023-07-28T08:25:28;19.90;99.90
39219;DHT22;24934;52.752;6.964;2023-07-28T08:27:54;19.90;99.90
39219;DHT22;24934;52.752;6.964;2023-07-28T08:30:19;20.00;99.90
39219;DHT22;24934;52.752;6.964;2023-07-28T08:32:45;20.10;99.90
39219;DHT22;24934;52.752;6.964;2023-07-28T08:35:11;20.30;99.90
39219;DHT22;24934;52.752;6.964;2023-07-28T08:37:36;20.60;99.90
39219;DHT22;24934;52.752;6.964;2023-07-28T08:40:02;20.90;99.90
39219;DHT22;24934;52.752;6.964;2023-07-28T08:42:31;21.00;99.90
39219;DHT22;24934;52.752;6.964;2023-07-28T08:45:04;21.10;99.90
39219;DHT22;24934;52.752;6.964;2023-07-28T08:47:31;21.30;99.90
39219;DHT22;24934;52.752;6.964;2023-07-28T08:49:57;21.40;99.90
39219;DHT22;24934;52.752;6.964;2023-07-28T08:52:23;21.30;99.90
39219;DHT22;24934;52.752;6.964;2023-07-28T08:54:54;21.50;99.90
39219;DHT22;24934;52.752;6.964;2023-07-28T08:57:20;22.00;99.90
39219;DHT22;24934;52.752;6.964;2023-07-28T08:59:46;23.10;99.90
39219;DHT22;24934;52.752;6.964;2023-07-28T09:02:16;24.10;99.90
39219;DHT22;24934;52.752;6.964;2023-07-28T09:04:43;25.30;99.90
39219;DHT22;24934;52.752;6.964;2023-07-28T09:07:09;25.20;99.90
39219;DHT22;24934;52.752;6.964;2023-07-28T09:09:35;24.50;99.90
39219;DHT22;24934;52.752;6.964;2023-07-28T09:12:02;24.00;99.90
39219;DHT22;24934;52.752;6.964;2023-07-28T09:14:29;23.70;99.90
39219;DHT22;24934;52.752;6.964;2023-07-28T09:16:55;24.10;99.90
39219;DHT22;24934;52.752;6.964;2023-07-28T09:19:21;24.70;99.90
39219;DHT22;24934;52.752;6.964;2023-07-28T09:21:59;24.80;99.90
39219;DHT22;24934;52.752;6.964;2023-07-28T09:24:32;25.00;99.90
39219;DHT22;24934;52.752;6.964;2023-07-28T09:27:02;24.90;99.90
39219;DHT22;24934;52.752;6.964;2023-07-28T09:29:28;24.80;99.90
39219;DHT22;24934;52.752;6.964;2023-07-28T09:31:54;24.70;99.90
39219;DHT22;24934;52.752;6.964;2023-07-28T09:34:28;24.70;99.90
39219;DHT22;24934;52.752;6.964;2023-07-28T09:36:58;24.40;99.90
39219;DHT22;24934;52.752;6.964;2023-07-28T09:39:25;24.70;99.90
39219;DHT22;24934;52.752;6.964;2023-07-28T09:41:51;24.80;99.90
39219;DHT22;24934;52.752;6.964;2023-07-28T09:44:17;24.90;99.90
39219;DHT22;24934;52.752;6.964;2023-07-28T09:46:50;25.10;99.90
39219;DHT22;24934;52.752;6.964;2023-07-28T09:49:41;25.10;99.90
39219;DHT22;24934;52.752;6.964;2023-07-28T09:52:09;24.90;99.90
39219;DHT22;24934;52.752;6.964;2023-07-28T09:54:39;24.80;99.90
39219;DHT22;24934;52.752;6.964;2023-07-28T09:57:11;24.60;99.90
39219;DHT22;24934;52.752;6.964;2023-07-28T09:59:41;24.50;99.90
39219;DHT22;24934;52.752;6.964;2023-07-28T10:02:08;24.30;99.90
39219;DHT22;24934;52.752;6.964;2023-07-28T10:04:35;24.10;99.90
39219;DHT22;24934;52.752;6.964;2023-07-28T10:07:02;24.90;99.90
39219;DHT22;24934;52.752;6.964;2023-07-28T10:09:30;25.20;99.90
39219;DHT22;24934;52.752;6.964;2023-07-28T10:11:59;25.20;99.90
39219;DHT22;24934;52.752;6.964;2023-07-28T10:14:30;24.70;99.90
39219;DHT22;24934;52.752;6.964;2023-07-28T10:17:00;23.80;99.90
39219;DHT22;24934;52.752;6.964;2023-07-28T10:19:28;23.10;99.90
39219;DHT22;24934;52.752;6.964;2023-07-28T10:22:01;22.60;99.90
39219;DHT22;24934;52.752;6.964;2023-07-28T10:24:52;22.50;99.90
39219;DHT22;24934;52.752;6.964;2023-07-28T10:30:04;22.30;99.90
39219;DHT22;24934;52.752;6.964;2023-07-28T10:32:42;22.40;99.90
39219;DHT22;24934;52.752;6.964;2023-07-28T10:37:37;22.60;99.90
39219;DHT22;24934;52.752;6.964;2023-07-28T10:40:31;22.60;99.90
39219;DHT22;24934;52.752;6.964;2023-07-28T10:43:02;22.70;99.90
39219;DHT22;24934;52.752;6.964;2023-07-28T10:45:29;22.80;99.90
39219;DHT22;24934;52.752;6.964;2023-07-28T10:47:59;22.80;99.90
39219;DHT22;24934;52.752;6.964;2023-07-28T10:50:30;22.70;99.90
39219;DHT22;24934;52.752;6.964;2023-07-28T10:52:56;22.50;99.90
39219;DHT22;24934;52.752;6.964;2023-07-28T10:55:24;22.40;99.90
39219;DHT22;24934;52.752;6.964;2023-07-28T10:57:52;21.70;99.90
39219;DHT22;24934;52.752;6.964;2023-07-28T11:00:19;21.30;99.90
39219;DHT22;24934;52.752;6.964;2023-07-28T11:02:48;21.10;99.90
39219;DHT22;24934;52.752;6.964;2023-07-28T11:05:20;20.90;99.90
39219;DHT22;24934;52.752;6.964;2023-07-28T11:07:48;21.00;99.90
39219;DHT22;24934;52.752;6.964;2023-07-28T11:10:14;21.30;99.90
39219;DHT22;24934;52.752;6.964;2023-07-28T11:12:45;21.50;99.90
39219;DHT22;24934;52.752;6.964;2023-07-28T11:15:13;21.60;99.90
39219;DHT22;24934;52.752;6.964;2023-07-28T11:17:40;21.60;99.90
39219;DHT22;24934;52.752;6.964;2023-07-28T11:20:27;21.50;99.90
39219;DHT22;24934;52.752;6.964;2023-07-28T11:23:04;21.50;99.90
39219;DHT22;24934;52.752;6.964;2023-07-28T11:25:33;21.40;99.90
39219;DHT22;24934;52.752;6.964;2023-07-28T11:28:03;21.50;99.90
39219;DHT22;24934;52.752;6.964;2023-07-28T11:30:32;21.90;99.90
39219;DHT22;24934;52.752;6.964;2023-07-28T11:33:01;22.90;99.90
39219;DHT22;24934;52.752;6.964;2023-07-28T11:35:30;23.30;99.90
39219;DHT22;24934;52.752;6.964;2023-07-28T11:37:57;23.00;99.90
39219;DHT22;24934;52.752;6.964;2023-07-28T11:40:23;22.70;99.90
39219;DHT22;24934;52.752;6.964;2023-07-28T11:42:52;22.50;99.90
39219;DHT22;24934;52.752;6.964;2023-07-28T11:45:19;21.70;99.90
39219;DHT22;24934;52.752;6.964;2023-07-28T11:48:06;21.40;99.90
39219;DHT22;24934;52.752;6.964;2023-07-28T11:50:39;21.90;99.90
39219;DHT22;24934;52.752;6.964;2023-07-28T11:53:06;22.10;99.90
39219;DHT22;24934;52.752;6.964;2023-07-28T11:55:34;21.90;99.90
39219;DHT22;24934;52.752;6.964;2023-07-28T11:58:00;21.60;99.90
39219;DHT22;24934;52.752;6.964;2023-07-28T12:00:36;21.50;99.90
39219;DHT22;24934;52.752;6.964;2023-07-28T12:03:05;21.40;99.90
39219;DHT22;24934;52.752;6.964;2023-07-28T12:05:34;21.30;99.90
39219;DHT22;24934;52.752;6.964;2023-07-28T12:08:01;21.20;99.90
39219;DHT22;24934;52.752;6.964;2023-07-28T12:10:29;21.30;99.90
39219;DHT22;24934;52.752;6.964;2023-07-28T12:13:07;21.20;99.90
39219;DHT22;24934;52.752;6.964;2023-07-28T12:15:40;21.30;99.90
39219;DHT22;24934;52.752;6.964;2023-07-28T12:18:12;21.50;99.90
39219;DHT22;24934;52.752;6.964;2023-07-28T12:20:47;21.90;99.90
39219;DHT22;24934;52.752;6.964;2023-07-28T12:23:14;22.80;99.90
39219;DHT22;24934;52.752;6.964;2023-07-28T12:25:41;23.60;99.90
39219;DHT22;24934;52.752;6.964;2023-07-28T12:28:07;24.20;99.90
39219;DHT22;24934;52.752;6.964;2023-07-28T12:30:35;24.90;99.90
39219;DHT22;24934;52.752;6.964;2023-07-28T12:33:08;25.20;99.90
39219;DHT22;24934;52.752;6.964;2023-07-28T12:35:35;25.50;99.90
39219;DHT22;24934;52.752;6.964;2023-07-28T12:38:02;25.70;99.90
39219;DHT22;24934;52.752;6.964;2023-07-28T12:40:32;25.40;99.90
39219;DHT22;24934;52.752;6.964;2023-07-28T12:42:59;25.60;99.90
39219;DHT22;24934;52.752;6.964;2023-07-28T12:45:25;25.70;99.90
39219;DHT22;24934;52.752;6.964;2023-07-28T12:47:55;25.50;99.90
39219;DHT22;24934;52.752;6.964;2023-07-28T12:50:21;25.50;99.90
39219;DHT22;24934;52.752;6.964;2023-07-28T12:52:48;26.00;99.90
39219;DHT22;24934;52.752;6.964;2023-07-28T12:55:14;26.20;99.90
39219;DHT22;24934;52.752;6.964;2023-07-28T12:57:40;26.00;99.90
39219;DHT22;24934;52.752;6.964;2023-07-28T13:00:06;25.60;99.90
39219;DHT22;24934;52.752;6.964;2023-07-28T13:02:39;25.30;99.90
39219;DHT22;24934;52.752;6.964;2023-07-28T13:05:05;25.40;99.90
39219;DHT22;24934;52.752;6.964;2023-07-28T13:07:31;25.60;99.90
39219;DHT22;24934;52.752;6.964;2023-07-28T13:09:56;26.00;99.90
39219;DHT22;24934;52.752;6.964;2023-07-28T13:12:22;26.10;99.90
39219;DHT22;24934;52.752;6.964;2023-07-28T13:14:48;26.20;99.90
39219;DHT22;24934;52.752;6.964;2023-07-28T13:17:13;26.40;99.90
39219;DHT22;24934;52.752;6.964;2023-07-28T13:19:40;26.60;99.90
39219;DHT22;24934;52.752;6.964;2023-07-28T13:22:05;26.50;99.90
39219;DHT22;24934;52.752;6.964;2023-07-28T13:24:34;26.30;99.90
39219;DHT22;24934;52.752;6.964;2023-07-28T13:27:00;26.10;99.90
39219;DHT22;24934;52.752;6.964;2023-07-28T13:29:26;25.80;99.90
39219;DHT22;24934;52.752;6.964;2023-07-28T13:31:56;25.50;99.90
39219;DHT22;24934;52.752;6.964;2023-07-28T13:34:22;25.20;99.90
39219;DHT22;24934;52.752;6.964;2023-07-28T13:36:48;24.90;99.90
39219;DHT22;24934;52.752;6.964;2023-07-28T13:39:14;25.10;99.90
39219;DHT22;24934;52.752;6.964;2023-07-28T13:41:39;25.40;99.90
39219;DHT22;24934;52.752;6.964;2023-07-28T13:44:05;25.60;99.90
39219;DHT22;24934;52.752;6.964;2023-07-28T13:46:31;26.00;99.90
39219;DHT22;24934;52.752;6.964;2023-07-28T13:48:56;26.60;99.90
39219;DHT22;24934;52.752;6.964;2023-07-28T13:51:22;27.00;99.90
39219;DHT22;24934;52.752;6.964;2023-07-28T13:53:47;27.10;99.90
39219;DHT22;24934;52.752;6.964;2023-07-28T13:56:13;27.00;99.90
39219;DHT22;24934;52.752;6.964;2023-07-28T13:58:39;27.30;99.90
39219;DHT22;24934;52.752;6.964;2023-07-28T14:01:04;27.30;99.90
39219;DHT22;24934;52.752;6.964;2023-07-28T14:03:30;27.30;99.90
39219;DHT22;24934;52.752;6.964;2023-07-28T14:05:55;27.40;99.90
39219;DHT22;24934;52.752;6.964;2023-07-28T14:08:21;27.40;99.90
39219;DHT22;24934;52.752;6.964;2023-07-28T14:10:47;27.60;99.90
39219;DHT22;24934;52.752;6.964;2023-07-28T14:13:12;27.60;99.90
39219;DHT22;24934;52.752;6.964;2023-07-28T14:15:38;27.90;99.90
39219;DHT22;24934;52.752;6.964;2023-07-28T14:18:04;28.10;99.90
39219;DHT22;24934;52.752;6.964;2023-07-28T14:20:30;28.20;99.90
39219;DHT22;24934;52.752;6.964;2023-07-28T14:22:55;28.30;99.90
39219;DHT22;24934;52.752;6.964;2023-07-28T14:25:21;28.00;99.90
39219;DHT22;24934;52.752;6.964;2023-07-28T14:27:47;27.90;99.90
39219;DHT22;24934;52.752;6.964;2023-07-28T14:30:12;27.90;99.90
39219;DHT22;24934;52.752;6.964;2023-07-28T14:32:38;27.90;99.90
39219;DHT22;24934;52.752;6.964;2023-07-28T14:35:04;27.50;99.90
39219;DHT22;24934;52.752;6.964;2023-07-28T14:37:29;27.50;99.90
39219;DHT22;24934;52.752;6.964;2023-07-28T14:39:55;27.50;99.90
39219;DHT22;24934;52.752;6.964;2023-07-28T14:42:24;27.20;99.90
39219;DHT22;24934;52.752;6.964;2023-07-28T14:44:49;26.90;99.90
39219;DHT22;24934;52.752;6.964;2023-07-28T14:47:15;26.80;99.90
39219;DHT22;24934;52.752;6.964;2023-07-28T14:49:40;26.60;99.90
39219;DHT22;24934;52.752;6.964;2023-07-28T14:52:06;26.40;99.90
39219;DHT22;24934;52.752;6.964;2023-07-28T14:54:35;26.30;99.90
39219;DHT22;24934;52.752;6.964;2023-07-28T14:57:00;26.10;99.90
39219;DHT22;24934;52.752;6.964;2023-07-28T14:59:26;26.30;99.90
39219;DHT22;24934;52.752;6.964;2023-07-28T15:01:51;26.40;99.90
39219;DHT22;24934;52.752;6.964;2023-07-28T15:04:17;26.60;99.90
39219;DHT22;24934;52.752;6.964;2023-07-28T15:06:43;26.80;99.90
39219;DHT22;24934;52.752;6.964;2023-07-28T15:09:08;26.80;99.90
39219;DHT22;24934;52.752;6.964;2023-07-28T15:11:34;26.60;99.90
39219;DHT22;24934;52.752;6.964;2023-07-28T15:14:00;26.60;99.90
39219;DHT22;24934;52.752;6.964;2023-07-28T15:16:25;26.50;99.90
39219;DHT22;24934;52.752;6.964;2023-07-28T15:18:51;26.20;99.90
39219;DHT22;24934;52.752;6.964;2023-07-28T15:21:17;25.90;99.90
39219;DHT22;24934;52.752;6.964;2023-07-28T15:23:42;25.90;99.90
39219;DHT22;24934;52.752;6.964;2023-07-28T15:26:08;25.80;99.90
39219;DHT22;24934;52.752;6.964;2023-07-28T15:28:34;25.70;99.90
39219;DHT22;24934;52.752;6.964;2023-07-28T15:30:59;25.80;99.90
39219;DHT22;24934;52.752;6.964;2023-07-28T15:33:25;26.00;99.90
39219;DHT22;24934;52.752;6.964;2023-07-28T15:35:54;25.90;99.90